Time;durP1;ratioP1;P1;durP2;ratioP2;P2;SDS_P1;SDS_P2;PMS_P1;PMS_P2;Temp;Humidity;BMP_temperature;BMP_pressure;BME280_temperature;BME280_humidity;BME280_pressure;Samples;Min_cycle;Max_cycle;Signal;HPM_P1;HPM_P2
2022/05/21 00:02:10;;;;;;;;;;;17.60;99.90;;;;;;5113513;27;19928;-72
2022/05/21 00:04:42;;;;;;;;;;;17.60;99.90;;;;;;5052399;28;20308;-73
2022/05/21 00:07:14;;;;;;;;;;;17.60;99.90;;;;;;5103255;28;19924;-70
2022/05/21 00:09:41;;;;;;;;;;;17.60;99.90;;;;;;5071416;28;19924;-73
2022/05/21 00:12:13;;;;;;;;;;;17.60;99.90;;;;;;5101213;28;20034;-72
2022/05/21 00:14:40;;;;;;;;;;;17.50;99.90;;;;;;5066176;28;19942;-72
2022/05/21 00:17:11;;;;;;;;;;;17.60;99.90;;;;;;5086021;28;19924;-72
2022/05/21 00:19:43;;;;;;;;;;;17.50;99.90;;;;;;5081577;28;19935;-72
2022/05/21 00:22:14;;;;;;;;;;;17.50;99.90;;;;;;5075342;28;20022;-72
2022/05/21 00:24:46;;;;;;;;;;;17.50;99.90;;;;;;5079785;28;19924;-72
2022/05/21 00:27:18;;;;;;;;;;;17.50;99.90;;;;;;5065759;28;19924;-74
2022/05/21 00:29:49;;;;;;;;;;;17.50;99.90;;;;;;5060851;28;20018;-72
2022/05/21 00:32:21;;;;;;;;;;;17.40;99.90;;;;;;5065240;28;19924;-72
2022/05/21 00:34:52;;;;;;;;;;;17.40;99.90;;;;;;5075661;28;19951;-73
2022/05/21 00:37:24;;;;;;;;;;;17.30;99.90;;;;;;5096112;28;20030;-72
2022/05/21 00:39:55;;;;;;;;;;;17.30;99.90;;;;;;5077241;28;19924;-71
2022/05/21 00:42:22;;;;;;;;;;;17.20;99.90;;;;;;5043418;28;20311;-72
2022/05/21 00:44:53;;;;;;;;;;;17.20;99.90;;;;;;5065945;28;20515;-72
2022/05/21 00:47:25;;;;;;;;;;;17.20;99.90;;;;;;5069446;28;19928;-73
2022/05/21 00:49:57;;;;;;;;;;;17.20;99.90;;;;;;5067964;28;19951;-72
2022/05/21 00:52:28;;;;;;;;;;;17.20;99.90;;;;;;5071234;28;19932;-72
2022/05/21 00:55:02;;;;;;;;;;;17.20;99.90;;;;;;5065338;28;19929;-72
2022/05/21 00:57:35;;;;;;;;;;;17.20;99.90;;;;;;5052317;28;20004;-72
2022/05/21 01:00:10;;;;;;;;;;;17.20;99.90;;;;;;5065032;28;19924;-71
2022/05/21 01:02:47;;;;;;;;;;;17.20;99.90;;;;;;5069661;28;20411;-72
2022/05/21 01:05:20;;;;;;;;;;;17.20;99.90;;;;;;5076676;28;19925;-73
2022/05/21 01:07:53;;;;;;;;;;;17.20;99.90;;;;;;5086818;28;20028;-72
2022/05/21 01:10:27;;;;;;;;;;;17.20;99.90;;;;;;5081350;28;19930;-72
2022/05/21 01:13:00;;;;;;;;;;;17.30;99.90;;;;;;5043814;28;20288;-72
2022/05/21 01:15:40;;;;;;;;;;;17.30;99.90;;;;;;5082047;28;19950;-72
2022/05/21 01:18:07;;;;;;;;;;;17.40;99.90;;;;;;5097987;28;19932;-72
2022/05/21 01:20:47;;;;;;;;;;;17.40;99.90;;;;;;5072477;28;19936;-72
2022/05/21 01:23:19;;;;;;;;;;;17.30;99.90;;;;;;5053861;28;20396;-71
2022/05/21 01:25:52;;;;;;;;;;;17.30;99.90;;;;;;5080606;28;19965;-72
2022/05/21 01:28:24;;;;;;;;;;;17.20;99.90;;;;;;5053025;28;20137;-72
2022/05/21 01:30:57;;;;;;;;;;;17.20;99.90;;;;;;5058328;28;20309;-73
2022/05/21 01:33:30;;;;;;;;;;;17.30;99.90;;;;;;5074609;28;19935;-72
2022/05/21 01:36:03;;;;;;;;;;;17.30;99.90;;;;;;5065425;28;20027;-71
2022/05/21 01:38:36;;;;;;;;;;;17.30;99.90;;;;;;5079515;28;19946;-72
2022/05/21 01:41:09;;;;;;;;;;;17.30;99.90;;;;;;5081241;28;19981;-72
2022/05/21 01:46:31;;;;;;;;;;;17.20;99.90;;;;;;5080762;28;19924;-71
2022/05/21 01:49:03;;;;;;;;;;;17.20;99.90;;;;;;5074219;28;20039;-72
2022/05/21 01:51:34;;;;;;;;;;;17.20;99.90;;;;;;5097887;28;19931;-71
2022/05/21 01:54:06;;;;;;;;;;;17.20;99.90;;;;;;5073136;28;19929;-71
2022/05/21 01:56:38;;;;;;;;;;;17.20;99.90;;;;;;5063129;28;19924;-71
2022/05/21 01:59:05;;;;;;;;;;;17.10;99.90;;;;;;5062873;28;19925;-71
2022/05/21 02:01:31;;;;;;;;;;;17.10;99.90;;;;;;5071919;28;19935;-73
2022/05/21 02:03:58;;;;;;;;;;;17.10;99.90;;;;;;5076595;28;20135;-71
2022/05/21 02:06:29;;;;;;;;;;;17.00;99.90;;;;;;5078212;28;20359;-72
2022/05/21 02:09:01;;;;;;;;;;;17.00;99.90;;;;;;5080287;28;19939;-72
2022/05/21 02:11:33;;;;;;;;;;;16.90;99.90;;;;;;5049911;28;19935;-72
2022/05/21 02:14:05;;;;;;;;;;;16.90;99.90;;;;;;5091373;28;19931;-72
2022/05/21 02:16:36;;;;;;;;;;;16.90;99.90;;;;;;5082561;28;19935;-71
2022/05/21 02:19:04;;;;;;;;;;;16.90;99.90;;;;;;5066401;28;20389;-72
2022/05/21 02:21:32;;;;;;;;;;;16.80;99.90;;;;;;5059557;28;19928;-72
2022/05/21 02:24:04;;;;;;;;;;;16.80;99.90;;;;;;5080812;28;19928;-72
2022/05/21 02:26:37;;;;;;;;;;;16.70;99.90;;;;;;5095120;28;19968;-72
2022/05/21 02:29:08;;;;;;;;;;;16.70;99.90;;;;;;5059847;28;20376;-71
2022/05/21 02:31:41;;;;;;;;;;;16.80;99.90;;;;;;5063793;28;19960;-71
2022/05/21 02:34:12;;;;;;;;;;;16.70;99.90;;;;;;5059682;28;19928;-72
2022/05/21 02:39:34;;;;;;;;;;;16.60;99.90;;;;;;5076375;28;19929;-72
2022/05/21 02:42:43;;;;;;;;;;;16.60;99.90;;;;;;5059290;28;19924;-71
2022/05/21 02:44:57;;;;;;;;;;;16.50;99.90;;;;;;5085534;28;20026;-71
2022/05/21 02:47:30;;;;;;;;;;;16.40;99.90;;;;;;5070514;28;19929;-72
2022/05/21 02:50:02;;;;;;;;;;;16.40;99.90;;;;;;5085468;28;20384;-73
2022/05/21 02:52:28;;;;;;;;;;;16.40;99.90;;;;;;5055914;28;19950;-71
2022/05/21 02:55:00;;;;;;;;;;;16.40;99.90;;;;;;5063527;28;19939;-72
2022/05/21 02:57:32;;;;;;;;;;;16.40;99.90;;;;;;5078603;28;19925;-71
2022/05/21 03:00:00;;;;;;;;;;;16.40;99.90;;;;;;5062980;28;19962;-71
2022/05/21 03:02:31;;;;;;;;;;;16.30;99.90;;;;;;5058156;28;19935;-71
2022/05/21 03:05:04;;;;;;;;;;;16.30;99.90;;;;;;5076777;28;19931;-71
2022/05/21 03:07:31;;;;;;;;;;;16.30;99.90;;;;;;5052622;28;20297;-71
2022/05/21 03:10:21;;;;;;;;;;;16.30;99.90;;;;;;5061562;28;20376;-71
2022/05/21 03:13:02;;;;;;;;;;;16.20;99.90;;;;;;5078570;28;19946;-72
2022/05/21 03:15:29;;;;;;;;;;;16.20;99.90;;;;;;5057775;28;19925;-72
2022/05/21 03:18:01;;;;;;;;;;;16.20;99.90;;;;;;5086949;28;20014;-72
2022/05/21 03:20:33;;;;;;;;;;;16.10;99.90;;;;;;5077926;28;20297;-71
2022/05/21 03:23:05;;;;;;;;;;;16.10;99.90;;;;;;5080273;28;19931;-71
2022/05/21 03:25:37;;;;;;;;;;;16.00;99.90;;;;;;5086686;28;19923;-71
2022/05/21 03:28:12;;;;;;;;;;;16.00;99.90;;;;;;5058491;28;19924;-71
2022/05/21 03:30:44;;;;;;;;;;;16.00;99.90;;;;;;5093904;28;20019;-71
2022/05/21 03:33:16;;;;;;;;;;;15.90;99.90;;;;;;5058773;28;19925;-71
2022/05/21 03:35:48;;;;;;;;;;;15.90;99.90;;;;;;5096965;28;20292;-71
2022/05/21 03:38:20;;;;;;;;;;;15.90;99.90;;;;;;5074840;28;20420;-71
2022/05/21 03:40:51;;;;;;;;;;;15.80;99.90;;;;;;5084053;28;20022;-72
2022/05/21 03:43:24;;;;;;;;;;;15.80;99.90;;;;;;5084619;28;19930;-72
2022/05/21 03:45:56;;;;;;;;;;;15.80;99.90;;;;;;5080702;28;19936;-71
2022/05/21 03:48:22;;;;;;;;;;;15.70;99.90;;;;;;5062516;28;19932;-71
2022/05/21 03:50:49;;;;;;;;;;;15.70;99.90;;;;;;5084152;28;20296;-71
2022/05/21 03:53:20;;;;;;;;;;;15.60;99.90;;;;;;5062181;28;20300;-72
2022/05/21 03:55:53;;;;;;;;;;;15.70;99.90;;;;;;5093817;28;19932;-72
2022/05/21 03:58:25;;;;;;;;;;;15.70;99.90;;;;;;5084593;28;19923;-72
2022/05/21 04:00:57;;;;;;;;;;;15.70;99.90;;;;;;5080913;28;20019;-71
2022/05/21 04:03:28;;;;;;;;;;;15.60;99.90;;;;;;5065015;28;19931;-72
2022/05/21 04:06:00;;;;;;;;;;;15.70;99.90;;;;;;5063960;28;19932;-72
2022/05/21 04:08:32;;;;;;;;;;;15.70;99.90;;;;;;5079924;28;20020;-71
2022/05/21 04:11:03;;;;;;;;;;;15.70;99.90;;;;;;5079106;28;19952;-72
2022/05/21 04:13:35;;;;;;;;;;;15.70;99.90;;;;;;5075166;28;20007;-72
2022/05/21 04:16:07;;;;;;;;;;;15.60;99.90;;;;;;5083881;28;19935;-71
2022/05/21 04:18:38;;;;;;;;;;;15.60;99.90;;;;;;5067027;28;19936;-72
2022/05/21 04:21:10;;;;;;;;;;;15.60;99.90;;;;;;5060675;28;20072;-72
2022/05/21 04:23:41;;;;;;;;;;;15.60;99.90;;;;;;5057703;28;19971;-71
2022/05/21 04:26:13;;;;;;;;;;;15.70;99.90;;;;;;5066857;28;19928;-71
2022/05/21 04:28:45;;;;;;;;;;;15.70;99.90;;;;;;5061939;28;19951;-71
2022/05/21 04:31:11;;;;;;;;;;;15.70;99.90;;;;;;5075880;28;19928;-71
2022/05/21 04:33:43;;;;;;;;;;;15.70;99.90;;;;;;5053462;28;19925;-71
2022/05/21 04:36:17;;;;;;;;;;;15.70;99.90;;;;;;5081037;28;19934;-71
2022/05/21 04:38:48;;;;;;;;;;;15.60;99.90;;;;;;5080610;28;19932;-71
2022/05/21 04:41:21;;;;;;;;;;;15.60;99.90;;;;;;5098585;28;19935;-71
2022/05/21 04:43:53;;;;;;;;;;;15.50;99.90;;;;;;5083896;28;19935;-72
2022/05/21 04:46:25;;;;;;;;;;;15.60;99.90;;;;;;5067525;28;19957;-71
2022/05/21 04:48:57;;;;;;;;;;;15.60;99.90;;;;;;5099617;28;19931;-72
2022/05/21 04:51:29;;;;;;;;;;;15.60;99.90;;;;;;5093708;28;20375;-71
2022/05/21 04:54:01;;;;;;;;;;;15.50;99.90;;;;;;5080816;28;20442;-71
2022/05/21 04:56:34;;;;;;;;;;;15.60;99.90;;;;;;5068254;28;19924;-71
2022/05/21 04:59:03;;;;;;;;;;;15.60;99.90;;;;;;5074501;28;19931;-72
2022/05/21 05:01:35;;;;;;;;;;;15.50;99.90;;;;;;5082440;28;19924;-72
2022/05/21 05:04:07;;;;;;;;;;;15.50;99.90;;;;;;5075584;28;20015;-71
2022/05/21 05:06:36;;;;;;;;;;;15.50;99.90;;;;;;5087607;28;19924;-71
2022/05/21 05:09:08;;;;;;;;;;;15.50;99.90;;;;;;5088796;28;19931;-71
2022/05/21 05:11:40;;;;;;;;;;;15.50;99.90;;;;;;5094783;28;19936;-71
2022/05/21 05:14:11;;;;;;;;;;;15.50;99.90;;;;;;5061198;28;19962;-71
2022/05/21 05:16:43;;;;;;;;;;;15.50;99.90;;;;;;5100493;28;19924;-72
2022/05/21 05:19:15;;;;;;;;;;;15.50;99.90;;;;;;5090735;28;19953;-71
2022/05/21 05:21:46;;;;;;;;;;;15.50;99.90;;;;;;5082768;28;19924;-72
2022/05/21 05:24:18;;;;;;;;;;;15.50;99.90;;;;;;5059907;28;19946;-72
2022/05/21 05:26:50;;;;;;;;;;;15.50;99.90;;;;;;5065537;28;19932;-71
2022/05/21 05:29:17;;;;;;;;;;;15.50;99.90;;;;;;5087044;28;19924;-71
2022/05/21 05:31:49;;;;;;;;;;;15.40;99.90;;;;;;5102593;28;19974;-72
2022/05/21 05:34:20;;;;;;;;;;;15.40;99.90;;;;;;5088911;28;20610;-72
2022/05/21 05:36:52;;;;;;;;;;;15.50;99.90;;;;;;5089107;28;20850;-71
2022/05/21 05:39:23;;;;;;;;;;;15.50;99.90;;;;;;5068752;28;19931;-71
2022/05/21 05:41:55;;;;;;;;;;;15.50;99.90;;;;;;5076054;28;19928;-72
2022/05/21 05:44:27;;;;;;;;;;;15.50;99.90;;;;;;5090652;28;19928;-71
2022/05/21 05:46:58;;;;;;;;;;;15.50;99.90;;;;;;5083267;28;19924;-71
2022/05/21 05:49:30;;;;;;;;;;;15.50;99.90;;;;;;5076846;28;19924;-71
2022/05/21 05:52:02;;;;;;;;;;;15.50;99.90;;;;;;5059435;28;19936;-70
2022/05/21 05:54:33;;;;;;;;;;;15.50;99.90;;;;;;5087205;28;19925;-70
2022/05/21 05:57:10;;;;;;;;;;;15.50;99.90;;;;;;5071550;28;19935;-71
2022/05/21 05:59:51;;;;;;;;;;;15.50;99.90;;;;;;5083332;28;20311;-71
2022/05/21 06:05:17;;;;;;;;;;;15.60;99.90;;;;;;5077817;28;19931;-71
2022/05/21 06:07:55;;;;;;;;;;;15.60;99.90;;;;;;5078502;28;19981;-71
2022/05/21 06:10:28;;;;;;;;;;;15.60;99.90;;;;;;5096121;28;20293;-71
2022/05/21 06:13:00;;;;;;;;;;;15.60;99.90;;;;;;5074537;28;20415;-70
2022/05/21 06:15:32;;;;;;;;;;;15.50;99.90;;;;;;5074639;28;19931;-71
2022/05/21 06:18:07;;;;;;;;;;;15.50;99.90;;;;;;5076701;28;20281;-71
2022/05/21 06:20:39;;;;;;;;;;;15.50;99.90;;;;;;5077762;28;20312;-71
2022/05/21 06:23:12;;;;;;;;;;;15.50;99.90;;;;;;5072091;28;19928;-71
2022/05/21 06:25:44;;;;;;;;;;;15.50;99.90;;;;;;5081591;28;20421;-71
2022/05/21 06:28:15;;;;;;;;;;;15.50;99.90;;;;;;5095699;28;19928;-71
2022/05/21 06:30:47;;;;;;;;;;;15.70;99.90;;;;;;5095433;28;20369;-71
2022/05/21 06:33:23;;;;;;;;;;;15.60;99.90;;;;;;5062435;28;19924;-71
2022/05/21 06:36:09;;;;;;;;;;;15.70;99.90;;;;;;5086571;28;20015;-71
2022/05/21 06:38:41;;;;;;;;;;;15.70;99.90;;;;;;5073055;28;19924;-72
2022/05/21 06:41:13;;;;;;;;;;;15.80;99.90;;;;;;5092783;28;20360;-71
2022/05/21 06:43:44;;;;;;;;;;;15.90;99.90;;;;;;5089488;28;19928;-71
2022/05/21 06:46:11;;;;;;;;;;;15.90;99.90;;;;;;5072954;28;20350;-70
2022/05/21 06:48:43;;;;;;;;;;;15.90;99.90;;;;;;5092740;28;19924;-71
2022/05/21 06:51:15;;;;;;;;;;;15.80;99.90;;;;;;5076269;28;19935;-71
2022/05/21 06:53:46;;;;;;;;;;;15.80;99.90;;;;;;5093289;28;19931;-71
2022/05/21 06:56:18;;;;;;;;;;;15.80;99.90;;;;;;5072286;28;19924;-72
2022/05/21 06:58:51;;;;;;;;;;;15.90;99.90;;;;;;5085574;28;20293;-72
2022/05/21 07:01:23;;;;;;;;;;;16.00;99.90;;;;;;5089652;28;20020;-71
2022/05/21 07:03:55;;;;;;;;;;;16.00;99.90;;;;;;5106118;28;19928;-72
2022/05/21 07:09:13;;;;;;;;;;;16.10;99.90;;;;;;5070712;28;19924;-71
2022/05/21 07:11:44;;;;;;;;;;;16.20;99.90;;;;;;5071361;28;19932;-71
2022/05/21 07:14:11;;;;;;;;;;;16.30;99.90;;;;;;5095831;28;19928;-71
2022/05/21 07:16:43;;;;;;;;;;;16.40;99.90;;;;;;5082754;28;19928;-71
2022/05/21 07:19:14;;;;;;;;;;;16.40;99.90;;;;;;5087682;28;20015;-71
2022/05/21 07:21:46;;;;;;;;;;;16.30;99.90;;;;;;5084679;28;20062;-71
2022/05/21 07:24:12;;;;;;;;;;;16.40;99.90;;;;;;5068200;28;19924;-71
2022/05/21 07:26:46;;;;;;;;;;;16.40;99.90;;;;;;5081912;28;20419;-72
2022/05/21 07:29:18;;;;;;;;;;;16.50;99.90;;;;;;5070922;28;19929;-70
2022/05/21 07:31:45;;;;;;;;;;;16.70;99.90;;;;;;5081600;28;19944;-73
2022/05/21 07:34:16;;;;;;;;;;;16.70;99.90;;;;;;5099343;28;19931;-71
2022/05/21 07:36:48;;;;;;;;;;;16.70;99.90;;;;;;5085414;28;20018;-71
2022/05/21 07:39:20;;;;;;;;;;;16.70;99.90;;;;;;5099924;28;19924;-71
2022/05/21 07:41:51;;;;;;;;;;;16.70;99.90;;;;;;5073378;28;20311;-71
2022/05/21 07:44:23;;;;;;;;;;;16.80;99.90;;;;;;5084375;28;19928;-72
2022/05/21 07:46:50;;;;;;;;;;;16.90;99.90;;;;;;5069762;28;19924;-72
2022/05/21 07:49:23;;;;;;;;;;;17.00;99.90;;;;;;5078637;28;19955;-71
2022/05/21 07:51:57;;;;;;;;;;;17.10;99.90;;;;;;5066115;28;20697;-71
2022/05/21 07:54:28;;;;;;;;;;;17.10;99.90;;;;;;5080190;28;19935;-72
2022/05/21 07:57:01;;;;;;;;;;;17.00;99.90;;;;;;5021375;28;1741982;-71
2022/05/21 07:59:28;;;;;;;;;;;17.10;99.90;;;;;;5086789;28;20031;-71
2022/05/21 08:02:00;;;;;;;;;;;17.20;99.90;;;;;;5080728;28;20280;-71
2022/05/21 08:04:31;;;;;;;;;;;17.30;99.90;;;;;;5075814;28;19950;-71
2022/05/21 08:07:03;;;;;;;;;;;17.40;99.90;;;;;;5055648;28;20299;-72
2022/05/21 08:09:35;;;;;;;;;;;17.50;99.90;;;;;;5085699;28;20269;-71
2022/05/21 08:12:07;;;;;;;;;;;17.60;99.90;;;;;;5087216;28;19930;-71
2022/05/21 08:14:34;;;;;;;;;;;17.70;99.90;;;;;;5049689;28;19924;-72
2022/05/21 08:17:07;;;;;;;;;;;17.70;99.90;;;;;;5089554;28;19960;-71
2022/05/21 08:19:40;;;;;;;;;;;17.80;99.90;;;;;;5079945;28;19924;-70
2022/05/21 08:27:55;;;;;;;;;;;17.80;99.90;;;;;;5104406;28;20285;-71
2022/05/21 08:30:21;;;;;;;;;;;17.80;99.90;;;;;;5084802;28;19973;-70
2022/05/21 08:33:00;;;;;;;;;;;17.90;99.90;;;;;;5071266;28;19939;-71
2022/05/21 08:35:32;;;;;;;;;;;17.90;99.90;;;;;;5079730;28;19940;-71
2022/05/21 08:38:04;;;;;;;;;;;17.90;99.90;;;;;;5075782;28;19990;-71
2022/05/21 08:40:59;;;;;;;;;;;17.90;99.90;;;;;;5084091;28;19925;-71
2022/05/21 08:43:51;;;;;;;;;;;18.10;99.90;;;;;;5077482;28;19924;-70
2022/05/21 08:46:23;;;;;;;;;;;18.30;99.90;;;;;;5083573;28;19924;-71
2022/05/21 08:48:59;;;;;;;;;;;18.50;99.90;;;;;;5070956;28;19924;-71
2022/05/21 08:51:33;;;;;;;;;;;18.60;99.90;;;;;;5059648;28;19924;-71
2022/05/21 08:54:05;;;;;;;;;;;18.60;99.90;;;;;;5063596;28;20404;-71
2022/05/21 08:56:32;;;;;;;;;;;18.40;99.90;;;;;;5082166;28;19935;-71
2022/05/21 08:59:05;;;;;;;;;;;18.40;99.90;;;;;;5066512;28;19924;-72
2022/05/21 09:01:38;;;;;;;;;;;18.50;99.90;;;;;;5057705;28;19935;-71
2022/05/21 09:04:12;;;;;;;;;;;18.60;99.90;;;;;;5072282;28;20296;-71
2022/05/21 09:07:04;;;;;;;;;;;18.50;99.90;;;;;;5095436;28;20358;-72
2022/05/21 09:09:50;;;;;;;;;;;18.60;99.90;;;;;;5082840;28;19958;-72
2022/05/21 09:12:23;;;;;;;;;;;18.70;99.90;;;;;;5071742;28;20311;-72
2022/05/21 09:14:57;;;;;;;;;;;18.80;99.90;;;;;;5102021;28;19928;-72
2022/05/21 09:17:30;;;;;;;;;;;18.90;99.90;;;;;;5089393;28;19924;-72
2022/05/21 09:20:03;;;;;;;;;;;19.00;99.90;;;;;;5074339;28;19928;-72
2022/05/21 09:22:35;;;;;;;;;;;19.00;99.90;;;;;;5064930;28;20568;-71
2022/05/21 09:25:27;;;;;;;;;;;19.00;99.90;;;;;;5074007;28;19924;-71
2022/05/21 09:28:06;;;;;;;;;;;18.90;99.90;;;;;;5090869;28;20023;-72
2022/05/21 09:30:42;;;;;;;;;;;19.00;99.90;;;;;;5091622;28;19924;-71
2022/05/21 09:33:40;;;;;;;;;;;19.10;99.90;;;;;;5088187;28;19997;-71
2022/05/21 09:36:18;;;;;;;;;;;19.20;99.90;;;;;;5061248;28;20411;-71
2022/05/21 09:38:54;;;;;;;;;;;19.40;99.90;;;;;;5086202;28;19926;-72
2022/05/21 09:41:27;;;;;;;;;;;19.40;99.90;;;;;;5098428;27;19925;-71
2022/05/21 09:47:16;;;;;;;;;;;19.40;99.90;;;;;;5025787;28;19933;-72
2022/05/21 09:50:03;;;;;;;;;;;19.50;99.90;;;;;;5084179;28;19930;-71
2022/05/21 09:52:31;;;;;;;;;;;19.50;99.90;;;;;;5091089;28;20407;-72
2022/05/21 09:55:04;;;;;;;;;;;19.50;98.90;;;;;;5103705;28;19928;-72
2022/05/21 09:57:43;;;;;;;;;;;19.50;97.20;;;;;;5073483;28;19924;-72
2022/05/21 10:00:32;;;;;;;;;;;19.70;99.30;;;;;;5077647;28;19928;-71
2022/05/21 10:03:05;;;;;;;;;;;19.80;97.10;;;;;;5083422;28;19924;-71
2022/05/21 10:05:40;;;;;;;;;;;19.80;98.50;;;;;;5092158;28;20614;-71
2022/05/21 10:11:22;;;;;;;;;;;20.00;98.00;;;;;;5072199;28;19927;-71
2022/05/21 10:14:00;;;;;;;;;;;20.10;97.40;;;;;;5069266;28;19928;-72
2022/05/21 10:16:45;;;;;;;;;;;20.10;97.10;;;;;;5072421;28;19924;-72
2022/05/21 10:19:30;;;;;;;;;;;20.00;94.90;;;;;;5073161;28;19947;-71
2022/05/21 10:22:18;;;;;;;;;;;19.90;95.60;;;;;;5074110;28;19964;-72
2022/05/21 10:24:49;;;;;;;;;;;20.10;94.80;;;;;;5072584;28;19947;-72
2022/05/21 10:27:35;;;;;;;;;;;20.10;95.20;;;;;;5076065;28;19928;-72
2022/05/21 10:30:08;;;;;;;;;;;20.00;93.80;;;;;;5089091;28;19971;-72
2022/05/21 10:32:47;;;;;;;;;;;20.00;93.30;;;;;;5073265;28;19924;-71
2022/05/21 10:35:28;;;;;;;;;;;20.10;92.60;;;;;;5083762;28;19932;-71
2022/05/21 10:38:01;;;;;;;;;;;20.20;92.50;;;;;;5071652;28;19963;-71
2022/05/21 10:40:44;;;;;;;;;;;20.30;91.90;;;;;;5087978;28;20019;-72
2022/05/21 10:43:35;;;;;;;;;;;20.40;92.70;;;;;;5078104;28;19936;-72
2022/05/21 10:46:09;;;;;;;;;;;20.50;91.50;;;;;;5057954;28;19924;-71
2022/05/21 10:48:58;;;;;;;;;;;20.50;91.30;;;;;;5068808;28;20027;-72
2022/05/21 10:51:24;;;;;;;;;;;20.40;92.20;;;;;;5079557;28;19932;-71
2022/05/21 10:54:08;;;;;;;;;;;20.50;91.40;;;;;;5094438;28;20515;-72
2022/05/21 10:56:41;;;;;;;;;;;20.60;91.40;;;;;;5079008;28;20293;-72
2022/05/21 10:59:22;;;;;;;;;;;20.60;91.20;;;;;;5061090;28;19925;-71
2022/05/21 11:02:03;;;;;;;;;;;20.60;90.90;;;;;;5066754;28;19928;-71
2022/05/21 11:04:34;;;;;;;;;;;20.60;90.80;;;;;;5078810;28;19936;-71
2022/05/21 11:07:25;;;;;;;;;;;20.50;88.70;;;;;;5069424;28;19925;-72
2022/05/21 11:09:56;;;;;;;;;;;20.60;89.70;;;;;;5077519;28;20288;-72
2022/05/21 11:12:44;;;;;;;;;;;20.70;90.10;;;;;;5093423;28;20374;-72
2022/05/21 11:15:23;;;;;;;;;;;20.80;91.20;;;;;;5100729;28;19985;-72
2022/05/21 11:17:56;;;;;;;;;;;21.10;91.20;;;;;;5074538;28;19924;-72
2022/05/21 11:20:33;;;;;;;;;;;21.00;91.00;;;;;;5079656;28;19932;-72
2022/05/21 11:23:09;;;;;;;;;;;21.10;90.40;;;;;;5098350;28;20444;-72
2022/05/21 11:25:40;;;;;;;;;;;21.20;91.20;;;;;;5071575;28;19938;-72
2022/05/21 11:28:29;;;;;;;;;;;21.30;91.50;;;;;;5078393;28;20168;-71
2022/05/21 11:31:04;;;;;;;;;;;21.30;90.60;;;;;;5079308;28;19932;-71
2022/05/21 11:39:20;;;;;;;;;;;21.30;88.70;;;;;;5092627;28;20222;-72
2022/05/21 11:41:57;;;;;;;;;;;21.30;86.60;;;;;;5077965;28;19924;-71
2022/05/21 11:44:58;;;;;;;;;;;21.40;85.30;;;;;;5092316;28;19954;-71
2022/05/21 11:47:39;;;;;;;;;;;21.40;87.20;;;;;;5094196;28;19932;-72
2022/05/21 11:50:22;;;;;;;;;;;21.40;87.30;;;;;;5088650;28;19924;-73
2022/05/21 11:52:58;;;;;;;;;;;21.50;83.20;;;;;;5074645;28;19935;-71
2022/05/21 11:55:31;;;;;;;;;;;21.50;84.80;;;;;;5072674;28;19924;-72
2022/05/21 11:58:06;;;;;;;;;;;21.50;83.50;;;;;;5105519;28;20269;-71
2022/05/21 12:00:43;;;;;;;;;;;21.40;83.80;;;;;;5074922;28;20451;-71
2022/05/21 12:03:16;;;;;;;;;;;21.50;82.40;;;;;;5092075;28;20415;-73
2022/05/21 12:05:53;;;;;;;;;;;21.80;85.80;;;;;;5077891;28;19928;-72
2022/05/21 12:08:29;;;;;;;;;;;21.80;85.10;;;;;;5089084;28;19935;-72
2022/05/21 12:11:02;;;;;;;;;;;22.00;82.20;;;;;;5076360;28;19935;-72
2022/05/21 12:13:33;;;;;;;;;;;22.00;83.30;;;;;;5072294;28;20015;-72
2022/05/21 12:16:20;;;;;;;;;;;22.00;82.00;;;;;;5090361;28;19944;-72
2022/05/21 12:18:48;;;;;;;;;;;22.00;83.60;;;;;;5072496;28;19924;-72
2022/05/21 12:21:43;;;;;;;;;;;22.20;80.90;;;;;;5091550;28;19929;-72
2022/05/21 12:24:34;;;;;;;;;;;22.10;82.30;;;;;;5092598;28;20020;-72
2022/05/21 12:27:21;;;;;;;;;;;22.10;83.40;;;;;;5072779;28;19977;-72
2022/05/21 12:29:56;;;;;;;;;;;22.30;87.10;;;;;;5108594;27;19935;-73
2022/05/21 12:32:29;;;;;;;;;;;22.40;81.40;;;;;;5074253;28;20602;-72
2022/05/21 12:35:10;;;;;;;;;;;22.80;85.80;;;;;;5088292;28;19928;-73
2022/05/21 12:37:47;;;;;;;;;;;23.00;76.00;;;;;;5087888;28;19924;-72
2022/05/21 12:40:38;;;;;;;;;;;23.00;78.90;;;;;;5075236;28;19924;-72
2022/05/21 12:43:11;;;;;;;;;;;23.00;74.60;;;;;;5087818;28;19974;-73
2022/05/21 12:45:44;;;;;;;;;;;23.00;75.00;;;;;;5088029;28;19928;-72
2022/05/21 12:48:21;;;;;;;;;;;23.20;74.50;;;;;;5091606;28;19931;-72
2022/05/21 12:50:55;;;;;;;;;;;23.10;76.20;;;;;;5089010;28;19929;-72
2022/05/21 12:53:24;;;;;;;;;;;23.10;78.80;;;;;;5105862;28;19924;-72
2022/05/21 12:56:01;;;;;;;;;;;23.10;75.10;;;;;;5069862;28;20391;-72
2022/05/21 12:58:32;;;;;;;;;;;23.30;78.80;;;;;;5089262;28;19951;-73
2022/05/21 13:01:05;;;;;;;;;;;23.40;77.30;;;;;;5090754;28;19931;-72
2022/05/21 13:03:33;;;;;;;;;;;23.30;76.30;;;;;;5088861;28;20035;-72
2022/05/21 13:06:06;;;;;;;;;;;23.40;74.10;;;;;;5086404;28;19928;-72
2022/05/21 13:08:40;;;;;;;;;;;23.40;73.50;;;;;;5092767;28;19930;-73
2022/05/21 13:11:16;;;;;;;;;;;23.40;73.10;;;;;;5085304;28;20300;-72
2022/05/21 13:13:45;;;;;;;;;;;23.40;74.50;;;;;;5102148;28;19924;-72
2022/05/21 13:16:18;;;;;;;;;;;23.40;72.50;;;;;;5068930;28;19928;-72
2022/05/21 13:18:49;;;;;;;;;;;23.50;76.10;;;;;;5104677;28;19951;-72
2022/05/21 13:21:36;;;;;;;;;;;23.70;76.60;;;;;;5072374;28;19929;-72
2022/05/21 13:24:10;;;;;;;;;;;23.70;76.00;;;;;;5078407;28;20339;-72
2022/05/21 13:26:42;;;;;;;;;;;23.60;75.60;;;;;;5082178;28;19928;-72
2022/05/21 13:29:17;;;;;;;;;;;23.60;75.00;;;;;;5088123;28;19931;-72
2022/05/21 13:31:49;;;;;;;;;;;23.70;72.10;;;;;;5087471;28;19932;-72
2022/05/21 13:34:17;;;;;;;;;;;23.60;72.30;;;;;;5087997;28;19931;-72
2022/05/21 13:36:58;;;;;;;;;;;23.50;74.20;;;;;;5086991;28;20390;-73
2022/05/21 13:39:28;;;;;;;;;;;23.80;77.20;;;;;;5102997;28;19935;-73
2022/05/21 13:42:06;;;;;;;;;;;23.90;73.00;;;;;;5099742;28;19924;-72
2022/05/21 13:44:38;;;;;;;;;;;24.10;72.40;;;;;;5080086;28;19924;-73
2022/05/21 13:47:24;;;;;;;;;;;24.20;72.80;;;;;;5070577;28;19931;-72
2022/05/21 13:49:55;;;;;;;;;;;24.10;71.70;;;;;;5071483;28;20289;-72
2022/05/21 13:52:23;;;;;;;;;;;24.20;73.30;;;;;;5071526;28;19931;-72
2022/05/21 13:54:55;;;;;;;;;;;24.10;73.70;;;;;;5068140;28;19931;-71
2022/05/21 13:57:28;;;;;;;;;;;24.00;70.70;;;;;;5070751;28;19947;-72
2022/05/21 14:00:03;;;;;;;;;;;24.00;69.70;;;;;;5070932;28;19931;-72
2022/05/21 14:02:47;;;;;;;;;;;24.00;71.20;;;;;;5067786;28;19928;-73
2022/05/21 14:05:23;;;;;;;;;;;24.00;69.30;;;;;;5069977;28;19963;-73
2022/05/21 14:08:07;;;;;;;;;;;24.00;67.40;;;;;;5085475;28;19924;-73
2022/05/21 14:10:43;;;;;;;;;;;24.20;66.30;;;;;;5069130;28;19982;-72
2022/05/21 14:13:25;;;;;;;;;;;24.20;68.60;;;;;;5103036;28;19928;-73
2022/05/21 14:15:52;;;;;;;;;;;24.10;69.50;;;;;;5067180;28;20431;-72
2022/05/21 14:18:42;;;;;;;;;;;24.30;67.50;;;;;;5098576;28;19939;-73
2022/05/21 14:21:21;;;;;;;;;;;24.70;69.60;;;;;;5055269;28;19946;-72
2022/05/21 14:24:07;;;;;;;;;;;24.80;64.60;;;;;;5100449;28;20179;-71
2022/05/21 14:26:38;;;;;;;;;;;24.90;63.90;;;;;;5064330;28;19932;-72
2022/05/21 14:29:24;;;;;;;;;;;24.80;63.20;;;;;;5099507;28;20304;-72
2022/05/21 14:32:09;;;;;;;;;;;25.20;64.30;;;;;;5071960;28;19930;-72
2022/05/21 14:34:41;;;;;;;;;;;25.20;65.00;;;;;;5082995;28;19928;-72
2022/05/21 14:37:20;;;;;;;;;;;25.20;62.70;;;;;;5087325;28;20306;-72
2022/05/21 14:39:47;;;;;;;;;;;25.60;65.00;;;;;;5071369;28;19925;-74
2022/05/21 14:42:19;;;;;;;;;;;25.60;65.30;;;;;;5090323;28;19934;-71
2022/05/21 14:44:50;;;;;;;;;;;25.90;65.00;;;;;;5063991;28;19928;-71
2022/05/21 14:52:58;;;;;;;;;;;26.10;61.60;;;;;;5086931;28;20412;-72
2022/05/21 14:55:30;;;;;;;;;;;26.20;61.00;;;;;;5060521;28;19929;-72
2022/05/21 14:58:02;;;;;;;;;;;26.30;60.90;;;;;;5076570;28;20458;-71
2022/05/21 15:00:34;;;;;;;;;;;26.30;59.50;;;;;;5090361;28;19932;-72
2022/05/21 15:03:06;;;;;;;;;;;26.30;59.70;;;;;;5061793;28;19931;-71
2022/05/21 15:05:40;;;;;;;;;;;26.00;60.60;;;;;;5072486;28;19928;-72
2022/05/21 15:08:07;;;;;;;;;;;26.10;57.10;;;;;;5074541;28;19924;-72
2022/05/21 15:10:40;;;;;;;;;;;26.10;57.60;;;;;;5063397;28;19928;-72
2022/05/21 15:13:11;;;;;;;;;;;26.10;57.50;;;;;;5089675;28;20463;-72
2022/05/21 15:15:43;;;;;;;;;;;26.00;57.30;;;;;;5057297;28;19932;-72
2022/05/21 15:18:15;;;;;;;;;;;25.90;57.80;;;;;;5091253;28;19924;-72
2022/05/21 15:20:47;;;;;;;;;;;26.20;58.60;;;;;;5073005;28;20032;-72
2022/05/21 15:23:19;;;;;;;;;;;26.40;60.10;;;;;;5072261;28;19947;-72
2022/05/21 15:25:46;;;;;;;;;;;26.40;58.60;;;;;;5075632;28;19932;-72
2022/05/21 15:28:17;;;;;;;;;;;26.50;57.30;;;;;;5099661;28;19935;-72
2022/05/21 15:30:51;;;;;;;;;;;26.90;56.90;;;;;;5079646;28;19924;-72